createdAt,value
2019-01-14T00:00:28.940Z,464
2019-01-14T00:01:36.145Z,464
2019-01-14T00:02:43.353Z,463
2019-01-14T00:03:50.553Z,464
2019-01-14T00:04:57.759Z,465
2019-01-14T00:06:11.019Z,465
2019-01-14T00:07:18.225Z,463
2019-01-14T00:08:25.149Z,464
2019-01-14T00:09:32.434Z,464
2019-01-14T00:10:39.643Z,464
2019-01-14T00:11:46.851Z,464
2019-01-14T00:12:53.792Z,465
2019-01-14T00:14:00.722Z,465
2019-01-14T00:15:07.934Z,466
2019-01-14T00:16:14.856Z,465
2019-01-14T00:17:22.057Z,465
2019-01-14T00:18:29.249Z,463
2019-01-14T00:19:36.456Z,464
2019-01-14T00:20:43.390Z,463
2019-01-14T00:21:50.597Z,464
2019-01-14T00:22:57.807Z,462
2019-01-14T00:24:05.014Z,462
2019-01-14T00:25:11.941Z,463
2019-01-14T00:26:19.162Z,462
2019-01-14T00:27:26.155Z,462
2019-01-14T00:28:33.368Z,461
2019-01-14T00:29:40.019Z,461
2019-01-14T00:30:47.223Z,462
2019-01-14T00:31:54.147Z,462
2019-01-14T00:33:01.072Z,462
2019-01-14T00:34:08.269Z,463
2019-01-14T00:35:15.202Z,463
2019-01-14T00:36:22.138Z,463
2019-01-14T00:37:29.077Z,463
2019-01-14T00:38:36.293Z,463
2019-01-14T00:39:43.511Z,463
2019-01-14T00:40:50.723Z,463
2019-01-14T00:41:57.935Z,463
2019-01-14T00:43:05.147Z,462
2019-01-14T00:44:12.078Z,462
2019-01-14T00:45:19.299Z,462
2019-01-14T00:46:26.517Z,462
2019-01-14T00:47:33.709Z,463
2019-01-14T00:48:40.914Z,463
2019-01-14T00:49:48.122Z,462
2019-01-14T00:50:55.327Z,463
2019-01-14T00:52:02.530Z,462
2019-01-14T00:53:09.750Z,462
2019-01-14T00:54:16.966Z,463
2019-01-14T00:55:24.183Z,462
2019-01-14T00:56:30.837Z,463
2019-01-14T00:57:38.036Z,461
2019-01-14T00:58:44.972Z,461
2019-01-14T00:59:52.188Z,462
2019-01-14T01:00:59.115Z,462
2019-01-14T01:02:06.324Z,462
2019-01-14T01:03:13.520Z,461
2019-01-14T01:04:20.463Z,460
2019-01-14T01:05:27.872Z,461
2019-01-14T01:06:35.087Z,461
2019-01-14T01:07:42.297Z,461
2019-01-14T01:08:49.497Z,462
2019-01-14T01:09:56.699Z,462
2019-01-14T01:11:03.902Z,462
2019-01-14T01:12:10.833Z,463
2019-01-14T01:13:18.044Z,463
2019-01-14T01:14:25.250Z,463
2019-01-14T01:15:32.196Z,462
2019-01-14T01:16:39.416Z,462
2019-01-14T01:17:46.625Z,461
2019-01-14T01:18:53.851Z,463
2019-01-14T01:20:01.214Z,461
2019-01-14T01:21:08.413Z,462
2019-01-14T01:22:15.624Z,462
2019-01-14T01:23:22.555Z,462
2019-01-14T01:24:29.776Z,461
2019-01-14T01:25:36.980Z,463
2019-01-14T01:26:44.184Z,462
2019-01-14T01:27:51.388Z,462
2019-01-14T01:28:58.592Z,461
2019-01-14T01:30:05.539Z,461
2019-01-14T01:31:12.767Z,460
2019-01-14T01:32:20.318Z,461
2019-01-14T01:33:27.537Z,461
2019-01-14T01:34:34.734Z,461
2019-01-14T01:35:41.933Z,466
2019-01-14T01:36:49.146Z,468
2019-01-14T01:37:56.896Z,467
2019-01-14T01:39:04.098Z,471
2019-01-14T01:40:11.308Z,467
2019-01-14T01:41:18.507Z,464
2019-01-14T01:42:25.728Z,468
2019-01-14T01:43:32.926Z,474
2019-01-14T01:44:40.151Z,476
2019-01-14T01:45:47.332Z,478
2019-01-14T01:46:54.294Z,479
2019-01-14T01:48:01.505Z,480
2019-01-14T01:49:08.704Z,478
2019-01-14T01:50:15.964Z,473
2019-01-14T01:51:22.899Z,468
2019-01-14T01:52:30.838Z,464
2019-01-14T01:53:38.057Z,465
2019-01-14T01:54:45.251Z,464
2019-01-14T01:55:52.519Z,464
2019-01-14T01:56:59.700Z,465
2019-01-14T01:58:06.631Z,464
2019-01-14T01:59:13.830Z,464
2019-01-14T02:00:21.044Z,462
2019-01-14T02:01:28.253Z,464
2019-01-14T02:02:35.465Z,463
2019-01-14T02:03:42.677Z,463
2019-01-14T02:04:49.882Z,462
2019-01-14T02:05:56.804Z,463
2019-01-14T02:07:03.731Z,462
2019-01-14T02:08:10.669Z,462
2019-01-14T02:09:17.876Z,463
2019-01-14T02:10:25.088Z,464
2019-01-14T02:11:31.740Z,462
2019-01-14T02:12:38.660Z,463
2019-01-14T02:13:45.586Z,463
2019-01-14T02:14:52.233Z,462
2019-01-14T02:15:59.453Z,463
2019-01-14T02:17:06.650Z,462
2019-01-14T02:18:13.859Z,462
2019-01-14T02:19:21.061Z,464
2019-01-14T02:20:28.002Z,464
2019-01-14T02:21:35.208Z,464
2019-01-14T02:22:42.145Z,463
2019-01-14T02:23:49.349Z,463
2019-01-14T02:24:56.299Z,464
2019-01-14T02:26:02.964Z,463
2019-01-14T02:27:10.173Z,464
2019-01-14T02:28:17.383Z,464
2019-01-14T02:29:24.591Z,465
2019-01-14T02:30:31.797Z,463
2019-01-14T02:31:39.017Z,464
2019-01-14T02:32:46.229Z,466
2019-01-14T02:33:53.443Z,464
2019-01-14T02:35:00.650Z,463
2019-01-14T02:36:07.862Z,464
2019-01-14T02:37:29.723Z,463
2019-01-14T02:38:36.936Z,464
2019-01-14T02:39:43.864Z,464
2019-01-14T02:40:51.080Z,465
2019-01-14T02:41:58.315Z,475
2019-01-14T02:43:05.283Z,472
2019-01-14T02:44:12.499Z,470
2019-01-14T02:45:19.701Z,466
2019-01-14T02:46:26.898Z,464
2019-01-14T02:47:33.826Z,462
2019-01-14T02:48:41.037Z,462
2019-01-14T02:50:02.896Z,463
2019-01-14T02:51:10.102Z,462
2019-01-14T02:52:17.309Z,462
2019-01-14T02:53:24.512Z,463
2019-01-14T02:54:31.452Z,477
2019-01-14T02:55:38.663Z,476
2019-01-14T02:56:45.869Z,475
2019-01-14T02:57:53.076Z,470
2019-01-14T02:59:00.015Z,465
2019-01-14T03:00:07.220Z,463
2019-01-14T03:01:14.423Z,475
2019-01-14T03:02:21.621Z,476
2019-01-14T03:03:28.832Z,475
2019-01-14T03:04:35.788Z,476
2019-01-14T03:05:42.992Z,473
2019-01-14T03:06:58.639Z,469
2019-01-14T03:08:05.844Z,469
2019-01-14T03:09:13.052Z,475
2019-01-14T03:10:19.990Z,477
2019-01-14T03:11:27.191Z,475
2019-01-14T03:12:34.400Z,478
2019-01-14T03:13:41.329Z,484
2019-01-14T03:14:48.549Z,487
2019-01-14T03:15:55.750Z,492
2019-01-14T03:17:02.967Z,493
2019-01-14T03:18:10.205Z,494
2019-01-14T03:19:17.433Z,497
2019-01-14T03:20:24.644Z,497
2019-01-14T03:21:31.852Z,499
2019-01-14T03:22:39.053Z,499
2019-01-14T03:23:45.986Z,501
2019-01-14T03:24:53.195Z,502
2019-01-14T03:26:00.402Z,502
2019-01-14T03:27:07.624Z,503
2019-01-14T03:28:14.841Z,502
2019-01-14T03:29:21.765Z,499
2019-01-14T03:30:28.713Z,494
2019-01-14T03:31:35.950Z,486
2019-01-14T03:32:43.154Z,480
2019-01-14T03:33:50.083Z,477
2019-01-14T03:34:57.280Z,474
2019-01-14T03:36:04.481Z,471
2019-01-14T03:37:11.703Z,486
2019-01-14T03:38:18.937Z,490
2019-01-14T03:39:26.162Z,493
2019-01-14T03:40:33.368Z,495
2019-01-14T03:41:40.323Z,497
2019-01-14T03:42:47.528Z,499
2019-01-14T03:43:54.217Z,499
2019-01-14T03:45:01.426Z,500
2019-01-14T03:46:08.628Z,500
2019-01-14T03:47:15.573Z,500
2019-01-14T03:48:22.785Z,500
2019-01-14T03:49:29.992Z,498
2019-01-14T03:50:37.277Z,498
2019-01-14T03:51:44.207Z,496
2019-01-14T03:52:51.448Z,494
2019-01-14T03:53:58.647Z,491
2019-01-14T03:55:05.574Z,488
2019-01-14T03:56:12.785Z,485
2019-01-14T03:57:20.021Z,482
2019-01-14T03:58:27.217Z,480
2019-01-14T03:59:34.443Z,476
2019-01-14T04:00:41.389Z,477
2019-01-14T04:01:48.595Z,475
2019-01-14T04:02:55.539Z,475
2019-01-14T04:04:02.755Z,474
2019-01-14T04:05:09.966Z,473
2019-01-14T04:06:16.887Z,473
2019-01-14T04:07:24.107Z,472
2019-01-14T04:08:31.304Z,472
2019-01-14T04:09:38.505Z,470
2019-01-14T04:10:45.711Z,471
2019-01-14T04:11:52.640Z,467
2019-01-14T04:12:59.864Z,460
2019-01-14T04:14:06.802Z,461
2019-01-14T04:15:14.020Z,468
2019-01-14T04:16:21.225Z,467
2019-01-14T04:17:28.170Z,476
2019-01-14T04:18:35.370Z,479
2019-01-14T04:19:42.324Z,483
2019-01-14T04:20:49.542Z,481
2019-01-14T04:21:56.755Z,477
2019-01-14T04:23:03.692Z,474
2019-01-14T04:24:10.898Z,470
2019-01-14T04:25:18.108Z,469
2019-01-14T04:26:25.036Z,467
2019-01-14T04:27:32.237Z,470
2019-01-14T04:28:39.457Z,470
2019-01-14T04:29:46.663Z,471
2019-01-14T04:30:53.877Z,473
2019-01-14T04:32:01.087Z,475
2019-01-14T04:33:08.301Z,474
2019-01-14T04:34:14.960Z,474
2019-01-14T04:35:22.184Z,470
2019-01-14T04:36:29.386Z,468
2019-01-14T04:37:36.342Z,468
2019-01-14T04:38:43.547Z,468
2019-01-14T04:39:50.761Z,467
2019-01-14T04:40:57.690Z,469
2019-01-14T04:42:04.946Z,469
2019-01-14T04:43:12.150Z,471
2019-01-14T04:44:19.370Z,470
2019-01-14T04:45:26.410Z,469
2019-01-14T04:46:33.338Z,472
2019-01-14T04:47:40.285Z,472
2019-01-14T04:48:47.235Z,472
2019-01-14T04:49:54.430Z,472
2019-01-14T04:51:01.697Z,474
2019-01-14T04:52:08.898Z,475
2019-01-14T04:53:16.109Z,474
2019-01-14T04:54:23.312Z,475
2019-01-14T04:55:30.512Z,476
2019-01-14T04:56:37.719Z,477
2019-01-14T04:57:44.924Z,476
2019-01-14T04:58:52.132Z,477
2019-01-14T04:59:59.332Z,477
2019-01-14T05:01:06.542Z,479
2019-01-14T05:02:13.742Z,478
2019-01-14T05:03:20.668Z,479
2019-01-14T05:04:27.871Z,480
2019-01-14T05:05:34.820Z,481
2019-01-14T05:06:42.038Z,481
2019-01-14T05:07:49.247Z,481
2019-01-14T05:08:56.470Z,481
2019-01-14T05:10:03.675Z,481
2019-01-14T05:11:10.871Z,481
2019-01-14T05:12:18.076Z,481
2019-01-14T05:13:25.010Z,481
2019-01-14T05:14:32.214Z,482
2019-01-14T05:15:39.418Z,483
2019-01-14T05:16:46.347Z,484
2019-01-14T05:17:53.549Z,484
2019-01-14T05:19:00.750Z,484
2019-01-14T05:20:07.978Z,485
2019-01-14T05:21:15.184Z,485
2019-01-14T05:22:21.864Z,484
2019-01-14T05:23:29.075Z,484
2019-01-14T05:24:36.287Z,486
2019-01-14T05:25:43.492Z,485
2019-01-14T05:26:50.425Z,486
2019-01-14T05:27:57.638Z,487
2019-01-14T05:29:04.851Z,487
2019-01-14T05:30:11.785Z,487
2019-01-14T05:31:18.986Z,488
2019-01-14T05:32:26.187Z,488
2019-01-14T05:33:32.849Z,489
2019-01-14T05:34:40.055Z,489
2019-01-14T05:35:47.004Z,489
2019-01-14T05:36:53.674Z,489
2019-01-14T05:38:00.907Z,490
2019-01-14T05:39:08.103Z,489
2019-01-14T05:40:15.031Z,489
2019-01-14T05:41:21.963Z,489
2019-01-14T05:42:28.892Z,489
2019-01-14T05:43:37.107Z,488
2019-01-14T05:44:44.025Z,489
2019-01-14T05:45:51.225Z,490
2019-01-14T05:46:58.435Z,490
2019-01-14T05:48:05.653Z,490
2019-01-14T05:49:12.870Z,491
2019-01-14T05:50:20.074Z,490
2019-01-14T05:51:26.719Z,490
2019-01-14T05:52:33.644Z,490
2019-01-14T05:53:40.839Z,489
2019-01-14T05:54:48.045Z,488
2019-01-14T05:55:55.272Z,489
2019-01-14T05:57:02.479Z,489
2019-01-14T05:58:09.705Z,489
2019-01-14T05:59:16.900Z,489
2019-01-14T06:00:24.126Z,488
2019-01-14T06:01:31.056Z,489
2019-01-14T06:02:37.981Z,490
2019-01-14T06:03:45.192Z,489
2019-01-14T06:04:52.126Z,489
2019-01-14T06:05:59.333Z,489
2019-01-14T06:07:06.268Z,489
2019-01-14T06:08:13.231Z,490
2019-01-14T06:09:20.436Z,488
2019-01-14T06:10:27.367Z,488
2019-01-14T06:11:34.577Z,490
2019-01-14T06:12:41.795Z,489
2019-01-14T06:13:49.017Z,488
2019-01-14T06:14:55.952Z,487
2019-01-14T06:16:02.903Z,488
2019-01-14T06:17:10.101Z,488
2019-01-14T06:18:17.312Z,487
2019-01-14T06:19:24.518Z,487
2019-01-14T06:20:31.713Z,488
2019-01-14T06:21:38.926Z,487
2019-01-14T06:22:46.134Z,487
2019-01-14T06:23:53.060Z,486
2019-01-14T06:25:00.284Z,484
2019-01-14T06:26:07.219Z,485
2019-01-14T06:27:14.168Z,484
2019-01-14T06:28:21.376Z,481
2019-01-14T06:29:28.039Z,478
2019-01-14T06:30:36.367Z,475
2019-01-14T06:31:43.578Z,473
2019-01-14T06:32:50.502Z,472
2019-01-14T06:33:57.716Z,470
2019-01-14T06:35:04.934Z,467
2019-01-14T06:36:11.872Z,468
2019-01-14T06:37:19.081Z,467
2019-01-14T06:38:26.303Z,467
2019-01-14T06:39:33.502Z,467
2019-01-14T06:40:40.705Z,467
2019-01-14T06:41:47.921Z,467
2019-01-14T06:42:54.843Z,465
2019-01-14T06:44:02.052Z,466
2019-01-14T06:45:08.975Z,466
2019-01-14T06:46:16.167Z,466
2019-01-14T06:47:23.370Z,466
2019-01-14T06:48:32.103Z,466
2019-01-14T06:49:39.303Z,467
2019-01-14T06:50:46.238Z,468
2019-01-14T06:51:53.465Z,468
2019-01-14T06:53:00.868Z,466
2019-01-14T06:54:08.089Z,468
2019-01-14T06:55:15.294Z,467
2019-01-14T06:56:22.222Z,467
2019-01-14T06:57:29.416Z,468
2019-01-14T06:58:36.619Z,467
2019-01-14T06:59:43.821Z,468
2019-01-14T07:00:51.027Z,467
2019-01-14T07:01:58.232Z,467
2019-01-14T07:03:05.471Z,468
2019-01-14T07:04:12.679Z,465
2019-01-14T07:05:19.893Z,465
2019-01-14T07:06:27.099Z,466
2019-01-14T07:07:34.300Z,464
2019-01-14T07:08:41.235Z,465
2019-01-14T07:09:48.440Z,466
2019-01-14T07:10:55.103Z,465
2019-01-14T07:12:02.304Z,465
2019-01-14T07:13:09.548Z,466
2019-01-14T07:14:16.501Z,465
2019-01-14T07:15:23.706Z,465
2019-01-14T07:16:30.932Z,464
2019-01-14T07:17:38.142Z,465
2019-01-14T07:18:44.797Z,465
2019-01-14T07:19:51.726Z,465
2019-01-14T07:20:58.930Z,465
2019-01-14T07:22:06.135Z,467
2019-01-14T07:23:13.067Z,467
2019-01-14T07:24:20.276Z,467
2019-01-14T07:25:27.479Z,466
2019-01-14T07:26:34.405Z,467
2019-01-14T07:27:41.063Z,466
2019-01-14T07:28:48.270Z,468
2019-01-14T07:29:55.467Z,467
2019-01-14T07:31:02.683Z,468
2019-01-14T07:32:10.111Z,467
2019-01-14T07:33:17.528Z,465
2019-01-14T07:34:24.751Z,467
2019-01-14T07:35:31.963Z,466
2019-01-14T07:36:39.185Z,466
2019-01-14T07:37:46.388Z,466
2019-01-14T07:38:53.592Z,466
2019-01-14T07:40:00.792Z,467
2019-01-14T07:41:08.024Z,467
2019-01-14T07:42:15.244Z,466
2019-01-14T07:43:22.455Z,467
2019-01-14T07:44:29.659Z,467
2019-01-14T07:45:36.864Z,466
2019-01-14T07:46:44.083Z,467
2019-01-14T07:47:51.493Z,467
2019-01-14T07:48:58.697Z,465
2019-01-14T07:50:05.899Z,466
2019-01-14T07:51:13.102Z,466
2019-01-14T07:52:20.327Z,465
2019-01-14T07:53:27.249Z,467
2019-01-14T07:54:34.471Z,464
2019-01-14T07:55:41.675Z,466
2019-01-14T07:56:48.895Z,464
2019-01-14T07:57:56.112Z,464
2019-01-14T07:59:03.308Z,463
2019-01-14T08:00:10.512Z,462
2019-01-14T08:01:17.727Z,463
2019-01-14T08:02:24.925Z,462
2019-01-14T08:03:32.137Z,462
2019-01-14T08:04:39.347Z,463
2019-01-14T08:05:46.287Z,463
2019-01-14T08:06:53.224Z,463
2019-01-14T08:08:00.429Z,462
2019-01-14T08:09:09.403Z,462
2019-01-14T08:10:16.603Z,471
2019-01-14T08:11:23.810Z,471
2019-01-14T08:12:31.018Z,470
2019-01-14T08:13:38.220Z,471
2019-01-14T08:15:00.090Z,474
2019-01-14T08:16:07.345Z,470
2019-01-14T08:17:14.552Z,470
2019-01-14T08:18:21.490Z,466
2019-01-14T08:19:28.716Z,465
2019-01-14T08:20:35.927Z,465
2019-01-14T08:21:43.149Z,465
2019-01-14T08:22:50.087Z,464
2019-01-14T08:23:57.286Z,464
2019-01-14T08:25:04.491Z,465
2019-01-14T08:26:11.468Z,480
2019-01-14T08:27:18.655Z,482
2019-01-14T08:28:25.591Z,485
2019-01-14T08:29:32.799Z,485
2019-01-14T08:30:39.995Z,486
2019-01-14T08:31:47.196Z,485
2019-01-14T08:32:54.624Z,484
2019-01-14T08:34:01.822Z,484
2019-01-14T08:35:08.772Z,484
2019-01-14T08:36:15.968Z,481
2019-01-14T08:37:22.633Z,476
2019-01-14T08:38:29.838Z,474
2019-01-14T08:39:37.050Z,474
2019-01-14T08:40:44.257Z,471
2019-01-14T08:41:51.460Z,468
2019-01-14T08:42:58.665Z,465
2019-01-14T08:44:05.870Z,484
2019-01-14T08:45:13.081Z,484
2019-01-14T08:46:20.292Z,486
2019-01-14T08:47:27.492Z,482
2019-01-14T08:48:34.710Z,481
2019-01-14T08:49:41.651Z,478
2019-01-14T08:50:48.917Z,485
2019-01-14T08:51:55.853Z,485
2019-01-14T08:53:02.780Z,485
2019-01-14T08:54:09.715Z,485
2019-01-14T08:55:16.920Z,486
2019-01-14T08:56:24.126Z,484
2019-01-14T08:57:31.342Z,481
2019-01-14T08:58:38.294Z,478
2019-01-14T08:59:45.197Z,483
2019-01-14T09:00:52.402Z,475
2019-01-14T09:01:59.340Z,481
2019-01-14T09:03:06.563Z,481
2019-01-14T09:04:13.508Z,475
2019-01-14T09:05:20.725Z,472
2019-01-14T09:06:27.930Z,467
2019-01-14T09:07:35.141Z,463
2019-01-14T09:08:42.079Z,463
2019-01-14T09:09:49.298Z,463
2019-01-14T09:10:56.494Z,461
2019-01-14T09:12:03.693Z,463
2019-01-14T09:13:10.896Z,463
2019-01-14T09:14:18.097Z,462
2019-01-14T09:15:25.298Z,463
2019-01-14T09:16:32.507Z,462
2019-01-14T09:17:39.722Z,462
2019-01-14T09:18:46.923Z,462
2019-01-14T09:19:54.145Z,462
2019-01-14T09:21:01.356Z,462
2019-01-14T09:22:08.307Z,461
2019-01-14T09:23:15.510Z,462
2019-01-14T09:24:22.447Z,462
2019-01-14T09:25:29.646Z,463
2019-01-14T09:26:36.848Z,464
2019-01-14T09:27:43.788Z,465
2019-01-14T09:28:50.997Z,464
2019-01-14T09:29:58.201Z,463
2019-01-14T09:31:05.422Z,465
2019-01-14T09:32:12.631Z,464
2019-01-14T09:33:19.841Z,463
2019-01-14T09:34:27.049Z,463
2019-01-14T09:35:34.261Z,461
2019-01-14T09:36:41.476Z,462
2019-01-14T09:37:48.678Z,462
2019-01-14T09:38:55.872Z,462
2019-01-14T09:40:02.836Z,463
2019-01-14T09:41:10.046Z,464
2019-01-14T09:42:16.981Z,464
2019-01-14T09:43:24.191Z,464
2019-01-14T09:44:31.395Z,463
2019-01-14T09:45:38.608Z,464
2019-01-14T09:46:45.534Z,464
2019-01-14T09:47:52.730Z,464
2019-01-14T09:48:59.948Z,464
2019-01-14T09:50:07.153Z,463
2019-01-14T09:51:14.363Z,464
2019-01-14T09:52:21.318Z,463
2019-01-14T09:53:28.257Z,463
2019-01-14T09:54:35.465Z,461
2019-01-14T09:55:42.412Z,459
2019-01-14T09:56:49.617Z,458
2019-01-14T09:57:56.847Z,459
2019-01-14T09:59:04.091Z,457
2019-01-14T10:00:11.304Z,454
2019-01-14T10:01:18.522Z,456
2019-01-14T10:02:25.725Z,455
2019-01-14T10:03:32.935Z,455
2019-01-14T10:04:40.139Z,454
2019-01-14T10:05:47.372Z,453
2019-01-14T10:06:54.584Z,455
2019-01-14T10:08:01.786Z,455
2019-01-14T10:09:08.999Z,454
2019-01-14T10:10:16.216Z,455
2019-01-14T10:11:23.438Z,453
2019-01-14T10:12:30.656Z,453
2019-01-14T10:13:37.862Z,454
2019-01-14T10:14:45.064Z,453
2019-01-14T10:15:52.016Z,454
2019-01-14T10:16:59.235Z,455
2019-01-14T10:18:06.500Z,455
2019-01-14T10:19:13.706Z,453
2019-01-14T10:20:20.927Z,453
2019-01-14T10:21:28.131Z,454
2019-01-14T10:22:35.364Z,453
2019-01-14T10:23:42.578Z,452
2019-01-14T10:24:49.806Z,451
2019-01-14T10:25:56.743Z,452
2019-01-14T10:27:03.954Z,451
2019-01-14T10:28:10.911Z,451
2019-01-14T10:29:18.117Z,450
2019-01-14T10:30:25.320Z,449
2019-01-14T10:31:31.995Z,448
2019-01-14T10:32:39.201Z,448
2019-01-14T10:33:46.417Z,447
2019-01-14T10:34:53.366Z,444
2019-01-14T10:36:00.553Z,444
2019-01-14T10:37:07.478Z,443
2019-01-14T10:38:14.686Z,441
2019-01-14T10:39:21.618Z,443
2019-01-14T10:40:28.848Z,441
2019-01-14T10:41:36.091Z,441
2019-01-14T10:42:43.297Z,442
2019-01-14T10:43:50.503Z,441
2019-01-14T10:44:57.435Z,439
2019-01-14T10:46:04.362Z,444
2019-01-14T10:47:11.571Z,446
2019-01-14T10:48:18.782Z,448
2019-01-14T10:49:25.450Z,449
2019-01-14T10:50:32.664Z,444
2019-01-14T10:51:39.600Z,445
2019-01-14T10:52:46.541Z,447
2019-01-14T10:53:53.747Z,443
2019-01-14T10:55:00.689Z,443
2019-01-14T10:56:07.916Z,439
2019-01-14T10:57:15.119Z,439
2019-01-14T10:58:22.053Z,446
2019-01-14T10:59:28.975Z,446
2019-01-14T11:00:36.198Z,446
2019-01-14T11:01:43.406Z,445
2019-01-14T11:02:50.611Z,448
2019-01-14T11:03:57.830Z,450
2019-01-14T11:05:05.035Z,450
2019-01-14T11:06:12.248Z,451
2019-01-14T11:07:19.180Z,449
2019-01-14T11:08:26.380Z,450
2019-01-14T11:09:33.594Z,451
2019-01-14T11:10:40.525Z,451
2019-01-14T11:11:47.756Z,452
2019-01-14T11:12:55.005Z,452
2019-01-14T11:14:01.950Z,453
2019-01-14T11:15:09.159Z,453
2019-01-14T11:16:16.371Z,453
2019-01-14T11:17:23.593Z,454
2019-01-14T11:18:30.801Z,453
2019-01-14T11:19:38.014Z,453
2019-01-14T11:20:44.946Z,453
2019-01-14T11:21:51.877Z,453
2019-01-14T11:22:59.102Z,453
2019-01-14T11:24:06.308Z,453
2019-01-14T11:25:13.247Z,453
2019-01-14T11:26:20.445Z,454
2019-01-14T11:27:27.383Z,454
2019-01-14T11:28:34.598Z,454
2019-01-14T11:29:41.796Z,454
2019-01-14T11:30:49.000Z,454
2019-01-14T11:31:55.926Z,453
2019-01-14T11:33:03.129Z,454
2019-01-14T11:34:09.807Z,454
2019-01-14T11:35:17.007Z,454
2019-01-14T11:36:24.221Z,453
2019-01-14T11:37:31.435Z,454
2019-01-14T11:38:38.429Z,454
2019-01-14T11:39:45.636Z,453
2019-01-14T11:40:52.566Z,455
2019-01-14T11:41:59.776Z,455
2019-01-14T11:43:06.985Z,456
2019-01-14T11:44:13.922Z,455
2019-01-14T11:45:20.849Z,455
2019-01-14T11:46:28.066Z,453
2019-01-14T11:47:35.273Z,455
2019-01-14T11:48:42.524Z,455
2019-01-14T11:49:49.739Z,455
2019-01-14T11:50:56.959Z,455
2019-01-14T11:52:04.182Z,455
2019-01-14T11:53:11.392Z,460
2019-01-14T11:54:18.601Z,466
2019-01-14T11:55:25.799Z,463
2019-01-14T11:56:32.721Z,469
2019-01-14T11:57:39.666Z,485
2019-01-14T11:58:46.870Z,484
2019-01-14T11:59:54.079Z,485
2019-01-14T12:01:01.294Z,487
2019-01-14T12:02:08.696Z,479
2019-01-14T12:03:15.908Z,483
2019-01-14T12:04:23.059Z,482
2019-01-14T12:05:30.002Z,480
2019-01-14T12:06:36.941Z,477
2019-01-14T12:07:44.151Z,472
2019-01-14T12:08:51.355Z,470
2019-01-14T12:09:58.598Z,472
2019-01-14T12:11:05.813Z,473
2019-01-14T12:12:13.022Z,471
2019-01-14T12:13:19.968Z,472
2019-01-14T12:14:27.188Z,473
2019-01-14T12:15:34.442Z,472
2019-01-14T12:16:41.667Z,471
2019-01-14T12:17:48.593Z,467
2019-01-14T12:18:55.808Z,465
2019-01-14T12:20:03.018Z,462
2019-01-14T12:21:10.230Z,458
2019-01-14T12:22:17.434Z,453
2019-01-14T12:23:24.641Z,451
2019-01-14T12:24:31.841Z,449
2019-01-14T12:25:38.764Z,449
2019-01-14T12:26:45.972Z,450
2019-01-14T12:27:53.224Z,450
2019-01-14T12:29:00.421Z,451
2019-01-14T12:30:07.628Z,451
2019-01-14T12:31:14.544Z,451
2019-01-14T12:32:21.770Z,451
2019-01-14T12:33:28.983Z,451
2019-01-14T12:34:36.185Z,451
2019-01-14T12:35:43.386Z,451
2019-01-14T12:36:51.792Z,451
2019-01-14T12:37:59.067Z,450
2019-01-14T12:39:06.267Z,448
2019-01-14T12:40:13.483Z,450
2019-01-14T12:41:20.710Z,449
2019-01-14T12:42:27.930Z,448
2019-01-14T12:43:35.169Z,449
2019-01-14T12:44:42.109Z,450
2019-01-14T12:45:49.028Z,451
2019-01-14T12:46:55.958Z,452
2019-01-14T12:48:03.173Z,452
2019-01-14T12:49:10.381Z,458
2019-01-14T12:50:17.583Z,457
2019-01-14T12:51:24.791Z,470
2019-01-14T12:52:31.792Z,474
2019-01-14T12:53:38.996Z,475
2019-01-14T12:54:46.214Z,469
2019-01-14T12:55:53.417Z,461
2019-01-14T12:57:00.632Z,453
2019-01-14T12:58:07.867Z,452
2019-01-14T12:59:15.077Z,453
2019-01-14T13:00:22.280Z,453
2019-01-14T13:01:29.472Z,452
2019-01-14T13:02:36.677Z,451
2019-01-14T13:03:43.899Z,451
2019-01-14T13:04:50.838Z,450
2019-01-14T13:05:58.061Z,449
2019-01-14T13:07:05.272Z,450
2019-01-14T13:08:12.490Z,451
2019-01-14T13:09:26.545Z,450
2019-01-14T13:10:33.921Z,450
2019-01-14T13:11:41.134Z,449
2019-01-14T13:12:48.344Z,450
2019-01-14T13:13:55.543Z,450
2019-01-14T13:15:02.798Z,453
2019-01-14T13:16:10.010Z,440
2019-01-14T13:17:16.953Z,444
2019-01-14T13:18:23.880Z,450
2019-01-14T13:19:31.112Z,445
2019-01-14T13:20:52.698Z,445
2019-01-14T13:21:59.916Z,441
2019-01-14T13:23:06.815Z,450
2019-01-14T13:24:14.021Z,452
2019-01-14T13:25:21.239Z,452
2019-01-14T13:26:28.447Z,450
2019-01-14T13:27:35.653Z,447
2019-01-14T13:28:42.866Z,441
2019-01-14T13:29:49.789Z,440
2019-01-14T13:30:56.714Z,446
2019-01-14T13:32:03.919Z,450
2019-01-14T13:33:11.143Z,451
2019-01-14T13:34:18.054Z,450
2019-01-14T13:35:24.985Z,452
2019-01-14T13:36:31.913Z,451
2019-01-14T13:37:39.135Z,453
2019-01-14T13:38:46.353Z,453
2019-01-14T13:39:53.674Z,453
2019-01-14T13:41:00.887Z,454
2019-01-14T13:42:08.093Z,455
2019-01-14T13:43:15.037Z,454
2019-01-14T13:44:22.254Z,453
2019-01-14T13:45:29.460Z,446
2019-01-14T13:46:36.676Z,445
2019-01-14T13:47:43.883Z,446
2019-01-14T13:48:51.102Z,447
2019-01-14T13:49:58.302Z,447
2019-01-14T13:51:05.230Z,446
2019-01-14T13:52:12.449Z,449
2019-01-14T13:53:19.658Z,449
2019-01-14T13:54:26.596Z,450
2019-01-14T13:55:33.804Z,450
2019-01-14T13:56:41.007Z,449
2019-01-14T13:57:48.238Z,450
2019-01-14T13:58:55.447Z,442
2019-01-14T14:00:02.669Z,443
2019-01-14T14:01:09.883Z,447
2019-01-14T14:02:17.134Z,448
2019-01-14T14:03:24.315Z,448
2019-01-14T14:04:31.240Z,447
2019-01-14T14:05:38.173Z,439
2019-01-14T14:06:45.381Z,445
2019-01-14T14:07:52.585Z,447
2019-01-14T14:08:59.786Z,448
2019-01-14T14:10:06.989Z,446
2019-01-14T14:11:13.650Z,443
2019-01-14T14:12:20.845Z,440
2019-01-14T14:13:27.785Z,441
2019-01-14T14:14:34.987Z,435
2019-01-14T14:15:42.209Z,441
2019-01-14T14:16:49.197Z,443
2019-01-14T14:17:57.694Z,444
2019-01-14T14:19:04.642Z,447
2019-01-14T14:20:11.844Z,447
2019-01-14T14:21:19.047Z,448
2019-01-14T14:22:25.920Z,449
2019-01-14T14:23:34.243Z,450
2019-01-14T14:24:41.457Z,450
2019-01-14T14:25:48.387Z,450
2019-01-14T14:26:55.609Z,449
2019-01-14T14:28:02.554Z,449
2019-01-14T14:29:09.747Z,449
2019-01-14T14:30:16.958Z,448
2019-01-14T14:31:24.168Z,448
2019-01-14T14:32:31.375Z,448
2019-01-14T14:33:38.586Z,447
2019-01-14T14:34:45.789Z,448
2019-01-14T14:35:52.718Z,448
2019-01-14T14:36:59.930Z,449
2019-01-14T14:38:06.882Z,449
2019-01-14T14:39:13.809Z,448
2019-01-14T14:40:21.033Z,448
2019-01-14T14:41:28.244Z,450
2019-01-14T14:42:35.449Z,448
2019-01-14T14:43:42.375Z,449
2019-01-14T14:44:49.308Z,448
2019-01-14T14:45:56.237Z,448
2019-01-14T14:47:03.172Z,448
2019-01-14T14:48:10.375Z,447
2019-01-14T14:49:17.584Z,449
2019-01-14T14:50:24.508Z,448
2019-01-14T14:51:31.434Z,448
2019-01-14T14:52:38.633Z,447
2019-01-14T14:53:45.840Z,449
2019-01-14T14:54:53.053Z,448
2019-01-14T14:56:00.001Z,448
2019-01-14T14:57:06.921Z,448
2019-01-14T14:58:13.844Z,448
2019-01-14T14:59:21.084Z,448
2019-01-14T15:00:28.290Z,448
2019-01-14T15:01:35.493Z,449
2019-01-14T15:02:42.421Z,449
2019-01-14T15:03:49.931Z,449
2019-01-14T15:04:56.870Z,449
2019-01-14T15:06:04.074Z,449
2019-01-14T15:07:11.276Z,448
2019-01-14T15:08:18.484Z,449
2019-01-14T15:09:32.429Z,449
2019-01-14T15:10:39.631Z,449
2019-01-14T15:11:46.833Z,449
2019-01-14T15:12:54.046Z,449
2019-01-14T15:14:01.302Z,449
2019-01-14T15:15:08.508Z,448
2019-01-14T15:16:15.459Z,448
2019-01-14T15:17:22.660Z,448
2019-01-14T15:18:29.864Z,449
2019-01-14T15:19:37.072Z,451
2019-01-14T15:20:44.280Z,450
2019-01-14T15:21:51.226Z,450
2019-01-14T15:22:58.428Z,448
2019-01-14T15:24:05.638Z,448
2019-01-14T15:25:12.834Z,448
2019-01-14T15:26:20.036Z,448